Time;durP1;ratioP1;P1;durP2;ratioP2;P2;SDS_P1;SDS_P2;PMS_P1;PMS_P2;Temp;Humidity;BMP_temperature;BMP_pressure;BME280_temperature;BME280_humidity;BME280_pressure;Samples;Min_cycle;Max_cycle;Signal;HPM_P1;HPM_P2
2022/01/15 00:01:09;;;;;;;11.35;7.78;;;;;;;8.72;65.62;100408.19;5001364;28;102609;-49
2022/01/15 00:03:37;;;;;;;10.50;6.85;;;;;;;8.73;65.06;100403.56;5004253;28;102528;-48
2022/01/15 00:06:05;;;;;;;9.75;6.75;;;;;;;8.72;65.54;100407.38;5003148;28;103065;-48
2022/01/15 00:08:32;;;;;;;9.10;6.95;;;;;;;8.72;65.99;100396.53;5004137;28;102611;-49
2022/01/15 00:10:58;;;;;;;9.25;6.65;;;;;;;8.72;65.01;100397.34;5005942;28;102142;-49
2022/01/15 00:13:30;;;;;;;9.60;7.45;;;;;;;8.72;65.96;100402.75;4998620;28;102729;-49
2022/01/15 00:16:05;;;;;;;8.50;6.22;;;;;;;8.72;65.31;100410.09;5007186;28;102370;-48
2022/01/15 00:18:44;;;;;;;10.15;6.68;;;;;;;8.72;65.27;100416.34;5001046;28;103810;-49
2022/01/15 00:21:13;;;;;;;9.55;6.30;;;;;;;8.72;66.01;100418.22;4996300;28;101994;-48
2022/01/15 00:23:40;;;;;;;8.77;6.38;;;;;;;8.72;64.87;100413.63;5009532;28;102381;-48
2022/01/15 00:26:07;;;;;;;8.43;6.07;;;;;;;8.71;65.82;100403.84;5007175;28;102510;-48
2022/01/15 00:28:34;;;;;;;8.07;6.38;;;;;;;8.72;65.27;100407.38;5011901;28;103955;-49
2022/01/15 00:31:00;;;;;;;8.43;6.07;;;;;;;8.71;65.66;100422.84;5015394;28;103251;-48
2022/01/15 00:33:29;;;;;;;8.07;5.90;;;;;;;8.71;65.48;100422.84;5006715;28;107344;-48
2022/01/15 00:35:57;;;;;;;8.05;6.30;;;;;;;8.71;64.83;100427.47;5015507;28;102308;-48
2022/01/15 00:38:25;;;;;;;6.95;5.50;;;;;;;8.72;65.02;100423.66;5009312;28;104099;-48
2022/01/15 00:40:52;;;;;;;8.80;6.18;;;;;;;8.71;65.03;100424.75;5010251;28;102493;-48
2022/01/15 00:43:18;;;;;;;8.05;5.57;;;;;;;8.71;65.65;100428.28;5006006;28;102403;-48
2022/01/15 00:45:45;;;;;;;7.72;5.38;;;;;;;8.72;65.57;100429.09;5011803;28;102054;-49
2022/01/15 00:48:12;;;;;;;7.90;5.53;;;;;;;8.72;65.64;100429.09;5006335;28;104174;-47
2022/01/15 00:50:40;;;;;;;7.45;5.45;;;;;;;8.71;65.56;100433.69;5012026;28;102671;-48
2022/01/15 00:53:07;;;;;;;8.25;5.45;;;;;;;8.71;65.32;100431.00;4999677;28;102194;-48
2022/01/15 00:55:35;;;;;;;7.93;5.47;;;;;;;8.71;65.78;100433.69;5004629;28;102958;-48
2022/01/15 00:58:01;;;;;;;7.00;4.93;;;;;;;8.72;65.47;100438.03;5008589;28;104005;-47
2022/01/15 01:00:28;;;;;;;6.35;4.75;;;;;;;8.71;65.23;100438.31;5002383;28;102420;-48
2022/01/15 01:02:55;;;;;;;6.32;4.60;;;;;;;8.70;66.16;100429.38;4999825;28;105401;-49
2022/01/15 01:05:21;;;;;;;6.35;5.03;;;;;;;8.71;65.36;100439.13;4997253;28;102858;-49
2022/01/15 01:07:49;;;;;;;6.50;5.10;;;;;;;8.71;65.65;100441.84;5002171;28;107970;-49
2022/01/15 01:13:14;;;;;;;6.13;4.70;;;;;;;8.70;65.45;100445.66;5005854;28;104413;-48
2022/01/15 01:24:01;;;;;;;6.80;4.68;;;;;;;8.70;65.35;100461.91;4957431;28;102523;-50
2022/01/15 01:26:33;;;;;;;5.50;4.32;;;;;;;8.71;65.30;100460.03;5002029;28;102742;-47
2022/01/15 01:29:12;;;;;;;5.10;4.22;;;;;;;8.70;65.08;100455.69;4996952;28;104088;-48
2022/01/15 01:31:53;;;;;;;;;;;;;;;8.70;65.86;100459.22;4999808;28;102247;-47
2022/01/15 01:34:20;;;;;;;5.43;3.88;;;;;;;8.70;64.94;100451.06;4994560;28;102817;-47
2022/01/15 01:39:20;;;;;;;7.75;4.40;;;;;;;8.70;65.34;100453.78;5005506;28;104058;-48
2022/01/15 01:44:39;;;;;;;5.88;3.92;;;;;;;8.70;66.17;100459.22;5005306;28;102760;-48
2022/01/15 01:47:15;;;;;;;5.38;3.95;;;;;;;8.69;65.29;100457.59;5002474;28;102484;-48
2022/01/15 01:50:11;;;;;;;4.30;3.47;;;;;;;8.69;65.12;100468.44;5006449;28;104002;-48
2022/01/15 01:52:39;;;;;;;4.97;4.05;;;;;;;8.69;65.54;100467.59;5012273;28;102187;-49
2022/01/15 01:55:07;;;;;;;5.40;4.00;;;;;;;8.70;65.55;100472.78;5008303;28;102215;-48
2022/01/15 01:57:34;;;;;;;5.93;4.10;;;;;;;8.69;65.12;100468.44;5000937;28;102216;-49
2022/01/15 02:00:07;;;;;;;4.68;3.70;;;;;;;8.70;64.94;100466.53;5001883;28;103872;-49
2022/01/15 02:02:35;;;;;;;5.63;3.45;;;;;;;8.70;65.40;100472.78;5002787;28;102069;-48
2022/01/15 02:05:02;;;;;;;4.07;3.40;;;;;;;8.70;65.86;100480.09;5005098;28;102253;-48
2022/01/15 02:07:29;;;;;;;5.15;3.45;;;;;;;8.69;65.54;100478.44;5006132;28;102677;-49
2022/01/15 02:09:57;;;;;;;4.63;3.05;;;;;;;8.69;65.65;100473.03;4998969;28;104038;-48
2022/01/15 02:12:24;;;;;;;3.92;3.10;;;;;;;8.69;65.01;100490.16;5001408;28;102063;-48
2022/01/15 02:14:51;;;;;;;4.88;3.63;;;;;;;8.69;65.33;100490.16;4996967;28;102520;-48
2022/01/15 02:17:21;;;;;;;4.45;3.40;;;;;;;8.69;65.92;100492.84;5001974;28;102859;-49
2022/01/15 02:20:11;;;;;;;3.83;3.00;;;;;;;8.70;65.57;100497.19;4996538;28;105272;-48
2022/01/15 02:25:22;;;;;;;4.10;3.25;;;;;;;8.68;66.05;100493.91;4998625;28;102586;-47
2022/01/15 02:27:49;;;;;;;3.53;2.85;;;;;;;8.68;65.05;100491.19;5002344;28;102536;-49
2022/01/15 02:30:16;;;;;;;3.92;3.00;;;;;;;8.69;65.11;100502.88;4979923;28;102372;-48
2022/01/15 02:32:43;;;;;;;3.92;2.92;;;;;;;8.69;65.18;100495.56;4998086;28;102551;-49
2022/01/15 02:35:13;;;;;;;4.15;2.75;;;;;;;8.69;65.84;100511.84;4997903;28;102855;-48
2022/01/15 02:37:40;;;;;;;4.55;3.17;;;;;;;8.68;65.51;100503.94;5000826;28;102527;-48
2022/01/15 02:40:10;;;;;;;3.13;2.80;;;;;;;8.68;65.57;100509.38;5000708;28;103886;-48
2022/01/15 02:42:38;;;;;;;3.38;2.78;;;;;;;8.68;65.39;100503.94;4998187;28;102380;-48
2022/01/15 02:45:08;;;;;;;4.60;2.80;;;;;;;8.68;65.87;100514.81;4997434;28;102665;-48
2022/01/15 02:50:22;;;;;;;3.35;2.40;;;;;;;8.68;65.61;100520.22;4995626;28;103961;-47
2022/01/15 02:52:48;;;;;;;4.05;2.92;;;;;;;8.68;65.90;100523.75;4999055;28;102372;-48
2022/01/15 02:55:15;;;;;;;3.53;3.03;;;;;;;8.69;65.20;100521.84;4980781;28;102514;-48
2022/01/15 02:57:42;;;;;;;4.32;2.60;;;;;;;8.68;65.36;100536.50;5002170;28;103007;-49
2022/01/15 03:00:10;;;;;;;3.60;2.60;;;;;;;8.68;65.98;100541.94;5000652;28;103798;-49
2022/01/15 03:02:37;;;;;;;3.85;2.38;;;;;;;8.68;65.37;100539.22;5004710;28;102932;-48
2022/01/15 03:05:04;;;;;;;3.25;2.20;;;;;;;8.68;65.68;100544.66;5007251;28;102953;-49
2022/01/15 03:07:34;;;;;;;4.32;2.30;;;;;;;8.68;66.02;100544.66;5000922;28;102681;-49
2022/01/15 03:10:00;;;;;;;2.53;2.10;;;;;;;8.69;65.36;100540.84;5000768;28;103718;-48
2022/01/15 03:12:27;;;;;;;3.17;2.40;;;;;;;8.68;65.16;100542.75;5002425;28;102644;-48
2022/01/15 03:14:59;;;;;;;3.38;2.50;;;;;;;8.67;65.59;100557.41;4996388;28;102416;-49
2022/01/15 03:17:25;;;;;;;3.53;2.45;;;;;;;8.68;65.56;100547.34;5000717;28;102406;-48
2022/01/15 03:19:53;;;;;;;3.53;2.40;;;;;;;8.66;65.62;100555.78;4996944;28;105336;-48
2022/01/15 03:22:20;;;;;;;3.65;2.38;;;;;;;8.68;65.96;100556.31;5001160;28;102736;-48
2022/01/15 03:24:48;;;;;;;3.08;2.20;;;;;;;8.67;66.11;100557.41;5007168;28;102623;-49
2022/01/15 03:27:14;;;;;;;2.42;1.92;;;;;;;8.68;65.62;100559.03;5002398;28;102176;-48
2022/01/15 03:29:41;;;;;;;3.63;2.38;;;;;;;8.68;65.48;100564.44;4994030;28;103790;-48
2022/01/15 03:32:08;;;;;;;3.63;2.28;;;;;;;8.68;65.42;100559.03;5003344;28;102576;-49
2022/01/15 03:34:34;;;;;;;2.95;2.28;;;;;;;8.68;65.72;100569.88;5009642;28;102132;-49
2022/01/15 03:37:01;;;;;;;3.45;2.45;;;;;;;8.67;65.94;100573.69;5017246;28;102170;-49
2022/01/15 03:39:28;;;;;;;2.88;2.00;;;;;;;8.66;65.32;100574.75;5010872;28;103898;-48
2022/01/15 03:41:55;;;;;;;3.17;2.30;;;;;;;8.68;66.11;100578.00;5010664;28;102798;-49
2022/01/15 03:44:22;;;;;;;2.63;2.10;;;;;;;8.68;65.50;100579.91;5007212;28;102655;-49
2022/01/15 03:46:49;;;;;;;2.80;2.28;;;;;;;8.68;65.66;100585.34;5004328;28;102220;-48
2022/01/15 03:49:15;;;;;;;3.40;2.22;;;;;;;8.67;65.49;100573.69;5002423;28;103565;-48
2022/01/15 03:51:42;;;;;;;2.65;1.98;;;;;;;8.68;64.92;100586.16;5005591;28;102112;-48
2022/01/15 03:54:08;;;;;;;2.03;1.63;;;;;;;8.67;65.49;100579.09;5006347;28;102141;-49
2022/01/15 03:56:35;;;;;;;3.03;2.08;;;;;;;8.67;64.68;100573.69;5005196;28;102224;-47
2022/01/15 03:59:03;;;;;;;3.72;1.92;;;;;;;8.68;65.57;100579.91;4999641;28;103869;-48
2022/01/15 04:01:29;;;;;;;2.53;1.88;;;;;;;8.68;66.00;100575.31;5008035;28;102323;-48
2022/01/15 04:03:56;;;;;;;2.55;1.98;;;;;;;8.66;65.38;100578.28;5002413;28;102512;-48
2022/01/15 04:06:22;;;;;;;3.25;2.08;;;;;;;8.67;66.20;100584.53;4996046;28;102636;-48
2022/01/15 04:08:49;;;;;;;2.13;1.60;;;;;;;8.68;65.27;100585.34;4999912;28;104047;-48
2022/01/15 04:11:16;;;;;;;2.95;1.83;;;;;;;8.67;65.66;100589.97;5003710;28;102649;-48
2022/01/15 04:13:42;;;;;;;3.05;1.83;;;;;;;8.67;65.29;100592.66;5000741;28;102654;-48
2022/01/15 04:16:11;;;;;;;2.00;1.80;;;;;;;8.68;66.06;100597.00;5001066;28;103043;-48
2022/01/15 04:18:40;;;;;;;2.65;1.83;;;;;;;8.67;66.16;100600.81;5003102;28;103913;-47
2022/01/15 04:21:10;;;;;;;3.15;1.90;;;;;;;8.66;65.60;100593.75;5001665;28;102686;-50
2022/01/15 04:23:37;;;;;;;2.20;1.90;;;;;;;8.68;65.00;100596.19;4999619;28;102885;-48
2022/01/15 04:26:04;;;;;;;2.65;2.10;;;;;;;8.68;65.25;100602.44;4995847;28;102630;-48
2022/01/15 04:28:33;;;;;;;2.72;1.85;;;;;;;8.68;65.28;100607.84;5001729;28;103963;-47
2022/01/15 04:31:07;;;;;;;2.08;1.88;;;;;;;8.67;65.76;100611.66;5001164;28;102766;-48
2022/01/15 04:33:38;;;;;;;2.63;1.90;;;;;;;8.67;65.50;100606.22;4999796;28;102688;-47
2022/01/15 04:36:06;;;;;;;1.70;1.50;;;;;;;8.67;65.97;100619.78;5002402;28;102388;-48
2022/01/15 04:38:37;;;;;;;2.07;1.50;;;;;;;8.66;65.85;100621.69;4998150;28;103972;-48
2022/01/15 04:41:04;;;;;;;1.70;1.58;;;;;;;8.68;65.38;100618.72;5001459;28;102742;-49
2022/01/15 04:43:31;;;;;;;2.85;1.80;;;;;;;8.67;65.76;100611.66;5004197;28;102729;-48
2022/01/15 04:45:58;;;;;;;2.75;1.90;;;;;;;8.68;65.38;100624.13;5001064;28;102650;-48
2022/01/15 04:48:24;;;;;;;2.78;1.63;;;;;;;8.68;65.61;100628.75;5002267;28;104127;-48
2022/01/15 04:50:53;;;;;;;1.80;1.52;;;;;;;8.66;65.16;100620.88;5002531;28;102651;-48
2022/01/15 04:53:19;;;;;;;2.50;1.92;;;;;;;8.66;64.96;100626.31;5004128;28;102574;-47
2022/01/15 04:55:46;;;;;;;3.25;1.85;;;;;;;8.68;65.97;100634.16;5002260;28;104535;-48
2022/01/15 04:58:13;;;;;;;2.17;1.50;;;;;;;8.67;65.71;100622.50;5003330;28;103738;-47
2022/01/15 05:00:40;;;;;;;2.38;1.70;;;;;;;8.67;65.66;100633.38;5004881;28;102285;-47
2022/01/15 05:03:06;;;;;;;2.03;1.63;;;;;;;8.68;65.89;100635.00;5007509;28;102153;-48
2022/01/15 05:05:33;;;;;;;2.78;1.40;;;;;;;8.68;65.39;100626.84;5004397;28;102939;-48
2022/01/15 05:08:02;;;;;;;1.80;1.50;;;;;;;8.67;65.96;100633.38;4998933;28;103693;-48
2022/01/15 05:10:29;;;;;;;1.60;1.48;;;;;;;8.67;65.49;100644.22;4999791;28;102771;-48
2022/01/15 05:12:58;;;;;;;1.77;1.45;;;;;;;8.67;65.32;100641.50;4998216;28;102516;-48
2022/01/15 05:15:24;;;;;;;1.52;1.40;;;;;;;8.68;66.09;100640.41;4997092;28;103013;-49
2022/01/15 05:17:51;;;;;;;2.13;1.40;;;;;;;8.67;65.79;100638.78;5000530;28;104031;-48
2022/01/15 05:20:20;;;;;;;2.35;1.48;;;;;;;8.66;65.70;100639.88;4997293;28;105188;-47
2022/01/15 05:22:48;;;;;;;2.17;1.30;;;;;;;8.67;65.26;100641.50;5001922;28;105687;-49
2022/01/15 05:25:18;;;;;;;2.83;1.52;;;;;;;8.67;65.55;100638.78;5000657;28;102976;-48
2022/01/15 05:27:45;;;;;;;;;;;;;;;8.66;65.45;100648.00;4995670;28;104506;-48
2022/01/15 05:30:13;;;;;;;1.92;1.40;;;;;;;8.67;65.46;100649.63;4994239;28;102832;-49
2022/01/15 05:32:40;;;;;;;3.28;2.10;;;;;;;8.66;65.07;100651.53;4999806;28;102538;-48
2022/01/15 05:35:08;;;;;;;2.45;1.33;;;;;;;8.66;65.79;100648.00;4999327;28;102794;-48
2022/01/15 05:37:35;;;;;;;1.98;1.45;;;;;;;8.67;65.06;100649.63;4998848;28;104016;-48
2022/01/15 05:40:01;;;;;;;1.70;1.30;;;;;;;8.66;65.82;100646.13;4998497;28;102403;-47
2022/01/15 05:42:29;;;;;;;1.90;1.42;;;;;;;8.68;65.70;100651.25;4999153;28;102697;-47
2022/01/15 05:44:56;;;;;;;2.17;1.52;;;;;;;8.68;66.17;100655.88;5004904;28;102626;-48
2022/01/15 05:47:22;;;;;;;1.80;1.50;;;;;;;8.66;65.47;100648.00;5000204;28;103988;-48
2022/01/15 05:49:49;;;;;;;1.75;1.30;;;;;;;8.67;65.46;100660.50;4998906;28;102490;-48
2022/01/15 05:52:16;;;;;;;2.92;1.63;;;;;;;8.67;65.53;100652.34;5003877;28;102587;-48
2022/01/15 05:54:43;;;;;;;2.13;1.40;;;;;;;8.67;65.29;100665.91;5001686;28;102351;-49
2022/01/15 05:57:09;;;;;;;2.88;1.40;;;;;;;8.66;65.48;100654.25;4996894;28;104287;-48
2022/01/15 05:59:39;;;;;;;2.08;1.50;;;;;;;8.66;65.26;100658.88;4998544;28;103935;-47
2022/01/15 06:02:05;;;;;;;2.33;1.45;;;;;;;8.66;65.82;100669.72;4997208;28;102501;-48
2022/01/15 06:04:34;;;;;;;2.05;1.33;;;;;;;8.66;64.90;100667.00;4997181;28;102833;-48
2022/01/15 06:07:00;;;;;;;2.90;1.50;;;;;;;8.66;65.97;100675.97;4994633;28;103788;-48
2022/01/15 06:09:27;;;;;;;2.08;1.30;;;;;;;8.66;65.12;100680.56;4996872;28;102578;-49
2022/01/15 06:11:56;;;;;;;2.25;1.48;;;;;;;8.66;65.67;100686.00;4998895;28;102719;-49
2022/01/15 06:14:23;;;;;;;2.53;1.48;;;;;;;8.66;66.24;100703.09;5002319;28;102621;-49
2022/01/15 06:16:50;;;;;;;2.35;1.65;;;;;;;8.67;65.27;100703.91;4994980;28;104199;-49
2022/01/15 06:19:17;;;;;;;3.00;1.40;;;;;;;8.66;65.50;100708.50;4998095;28;102542;-48
2022/01/15 06:21:44;;;;;;;1.88;1.30;;;;;;;8.67;65.10;100695.75;5000793;28;102587;-48
2022/01/15 06:24:11;;;;;;;1.80;1.45;;;;;;;8.66;65.75;100707.69;5003233;28;102584;-48
2022/01/15 06:26:38;;;;;;;2.20;1.55;;;;;;;8.67;65.51;100703.91;5004271;28;103976;-48
2022/01/15 06:29:04;;;;;;;1.83;1.20;;;;;;;8.68;65.08;100705.53;5000596;28;102646;-48
2022/01/15 06:31:31;;;;;;;2.03;1.50;;;;;;;8.68;65.89;100716.38;4999784;28;102787;-48
2022/01/15 06:33:59;;;;;;;1.88;1.65;;;;;;;8.68;65.36;100702.00;4998939;28;102909;-48
2022/01/15 06:36:26;;;;;;;2.40;1.52;;;;;;;8.67;65.54;100709.31;4995743;28;102999;-48
2022/01/15 06:38:53;;;;;;;2.30;1.60;;;;;;;8.68;65.14;100721.81;5000852;28;102221;-49
2022/01/15 06:41:19;;;;;;;2.38;1.40;;;;;;;8.69;66.03;100717.19;4997116;28;102224;-49
2022/01/15 06:43:46;;;;;;;1.73;1.48;;;;;;;8.69;65.39;100718.03;4994707;28;102835;-48
2022/01/15 06:46:14;;;;;;;2.20;1.55;;;;;;;8.70;65.34;100724.28;4994419;28;103868;-48
2022/01/15 06:48:40;;;;;;;2.33;1.40;;;;;;;8.69;65.47;100728.88;4995787;28;102649;-48
2022/01/15 06:51:08;;;;;;;2.42;1.40;;;;;;;8.71;65.18;100732.16;4994572;28;102497;-48
2022/01/15 06:53:35;;;;;;;2.58;1.52;;;;;;;8.72;65.89;100741.09;4996581;28;102652;-48
2022/01/15 06:56:02;;;;;;;1.95;1.30;;;;;;;8.72;65.55;100744.63;4994729;28;103859;-49
2022/01/15 06:58:29;;;;;;;2.05;1.58;;;;;;;8.72;65.32;100752.78;4997893;28;102444;-48
2022/01/15 07:00:55;;;;;;;3.15;1.45;;;;;;;8.73;64.81;100757.13;4994168;28;102997;-48
2022/01/15 07:03:22;;;;;;;3.10;1.40;;;;;;;8.74;65.51;100758.78;4996497;28;102711;-48
2022/01/15 07:05:49;;;;;;;1.52;1.30;;;;;;;8.74;65.96;100764.19;4994765;28;103882;-49
2022/01/15 07:08:18;;;;;;;2.53;1.50;;;;;;;8.75;65.59;100773.97;4995802;28;102933;-48
2022/01/15 07:10:45;;;;;;;2.93;1.33;;;;;;;8.76;65.38;100777.50;4995828;28;102338;-48
2022/01/15 07:13:11;;;;;;;1.73;1.33;;;;;;;8.77;65.08;100782.69;4999118;28;102899;-47
2022/01/15 07:15:39;;;;;;;2.28;1.50;;;;;;;8.77;65.57;100779.97;4995233;28;104200;-48
2022/01/15 07:18:05;;;;;;;2.72;1.55;;;;;;;8.77;65.80;100787.28;4998517;28;102377;-48
2022/01/15 07:20:32;;;;;;;2.22;1.50;;;;;;;8.77;66.07;100784.56;4998094;28;104455;-48
2022/01/15 07:22:59;;;;;;;1.65;1.23;;;;;;;8.77;65.58;100796.25;4998341;28;102597;-48
2022/01/15 07:25:27;;;;;;;2.88;1.60;;;;;;;8.77;65.44;100804.38;4995697;28;103946;-49
2022/01/15 07:27:54;;;;;;;2.77;1.63;;;;;;;8.78;66.05;100789.72;4996750;28;102591;-48
2022/01/15 07:30:20;;;;;;;3.33;1.40;;;;;;;8.78;66.01;100797.88;4994876;28;102641;-48
2022/01/15 07:32:48;;;;;;;2.40;1.40;;;;;;;8.78;65.29;100800.59;4995734;28;102763;-49
2022/01/15 07:35:15;;;;;;;2.28;1.20;;;;;;;8.78;65.23;100803.31;4999729;28;104086;-47
2022/01/15 07:37:42;;;;;;;2.15;1.40;;;;;;;8.78;66.00;100803.31;4999418;28;102515;-48
2022/01/15 07:40:09;;;;;;;2.13;1.50;;;;;;;8.78;65.26;100808.72;4995712;28;103074;-48
2022/01/15 07:42:39;;;;;;;2.72;1.50;;;;;;;8.78;66.06;100806.00;4996721;28;102760;-48
2022/01/15 07:45:08;;;;;;;2.17;1.20;;;;;;;8.79;65.13;100810.34;4997894;28;104710;-49
2022/01/15 07:47:36;;;;;;;2.13;1.40;;;;;;;8.80;65.79;100822.03;4995288;28;102503;-49
2022/01/15 07:50:04;;;;;;;2.30;1.40;;;;;;;8.81;65.83;100823.69;4982630;28;103855;-47
2022/01/15 07:52:31;;;;;;;3.15;1.27;;;;;;;8.82;65.41;100830.75;4997704;28;102733;-48
2022/01/15 07:55:00;;;;;;;2.97;1.65;;;;;;;8.82;65.18;100834.28;4995710;28;103951;-48
2022/01/15 07:57:27;;;;;;;2.70;1.55;;;;;;;8.83;66.00;100829.66;4996867;28;106755;-48
2022/01/15 07:59:55;;;;;;;2.47;1.55;;;;;;;8.83;66.06;100827.75;4993902;28;102805;-48
2022/01/15 08:02:22;;;;;;;2.35;1.50;;;;;;;8.84;65.46;100824.00;4992902;28;102731;-48
2022/01/15 08:04:49;;;;;;;1.98;1.20;;;;;;;8.83;65.94;100822.34;4991372;28;103922;-48
2022/01/15 08:07:18;;;;;;;2.38;1.15;;;;;;;8.84;65.99;100829.41;5000988;28;102127;-49
2022/01/15 08:09:45;;;;;;;2.15;1.40;;;;;;;8.85;65.71;100833.75;4999392;28;102531;-48
2022/01/15 08:12:12;;;;;;;3.35;1.40;;;;;;;8.86;65.73;100827.25;5001290;28;102391;-49
2022/01/15 08:14:39;;;;;;;1.58;1.23;;;;;;;8.86;66.08;100834.56;4996735;28;103924;-48
2022/01/15 08:17:07;;;;;;;1.65;1.23;;;;;;;8.85;65.24;100831.06;4980819;28;102246;-49
2022/01/15 08:19:33;;;;;;;2.72;1.48;;;;;;;8.84;65.78;100840.28;5006586;28;102626;-48
2022/01/15 08:22:00;;;;;;;1.88;1.40;;;;;;;8.86;65.36;100837.28;5000311;28;102306;-48
2022/01/15 08:24:27;;;;;;;1.52;1.17;;;;;;;8.86;65.99;100838.09;4990671;28;103988;-49
2022/01/15 08:26:54;;;;;;;1.90;1.23;;;;;;;8.86;65.54;100851.69;5011093;28;102802;-48
2022/01/15 08:29:21;;;;;;;1.40;1.13;;;;;;;8.86;65.55;100846.25;5003031;28;103214;-48
2022/01/15 08:31:48;;;;;;;2.20;1.50;;;;;;;8.87;66.03;100844.34;5005662;28;102261;-48
2022/01/15 08:34:16;;;;;;;2.22;1.30;;;;;;;8.86;66.04;100848.97;5002740;28;103251;-48
2022/01/15 08:36:43;;;;;;;2.10;1.53;;;;;;;8.87;66.08;100853.34;4997485;28;102255;-48
2022/01/15 08:39:10;;;;;;;3.05;1.60;;;;;;;8.87;65.30;100853.34;5008333;28;102775;-48
2022/01/15 08:41:37;;;;;;;2.50;1.45;;;;;;;8.87;65.74;100853.34;4996897;28;102205;-48
2022/01/15 08:44:06;;;;;;;2.83;1.67;;;;;;;8.87;66.09;100844.34;5003926;28;103885;-47
2022/01/15 08:46:33;;;;;;;1.75;1.30;;;;;;;8.87;65.11;100845.19;4984863;28;102658;-48
2022/01/15 08:48:59;;;;;;;4.68;1.90;;;;;;;8.86;65.68;100843.53;5001123;28;106226;-48
2022/01/15 08:51:30;;;;;;;3.47;1.58;;;;;;;8.86;65.28;100854.38;5003583;28;102524;-49
2022/01/15 08:53:56;;;;;;;3.15;1.50;;;;;;;8.88;65.05;100856.88;5004237;28;104278;-49
2022/01/15 08:56:23;;;;;;;3.50;1.70;;;;;;;8.86;66.03;100865.25;5001384;28;102533;-49
2022/01/15 08:58:50;;;;;;;3.75;1.60;;;;;;;8.87;65.71;100866.06;5004030;28;102571;-48
2022/01/15 09:01:17;;;;;;;2.22;1.35;;;;;;;8.88;65.11;100856.88;5005926;28;102253;-49
2022/01/15 09:03:44;;;;;;;2.35;1.23;;;;;;;8.88;64.93;100860.41;5003778;28;104273;-49
2022/01/15 09:06:12;;;;;;;2.30;1.45;;;;;;;8.88;65.31;100856.88;5003993;28;102258;-48
2022/01/15 09:08:42;;;;;;;2.38;1.50;;;;;;;8.88;65.62;100857.69;5000108;28;102178;-48
2022/01/15 09:11:09;;;;;;;2.25;1.45;;;;;;;8.87;65.10;100849.78;5005585;28;102779;-48
2022/01/15 09:13:36;;;;;;;2.30;1.38;;;;;;;8.86;65.17;100854.38;4985376;28;104103;-49
2022/01/15 09:16:04;;;;;;;2.38;1.40;;;;;;;8.87;65.40;100861.47;5002294;28;102485;-48
2022/01/15 09:18:31;;;;;;;2.58;1.40;;;;;;;8.86;64.77;100865.25;5001451;28;102816;-48
2022/01/15 09:20:58;;;;;;;4.00;1.73;;;;;;;8.86;65.38;100851.69;5001046;28;102575;-48
2022/01/15 09:23:24;;;;;;;2.78;1.70;;;;;;;8.88;65.50;100870.44;4998309;28;103889;-48
2022/01/15 09:25:52;;;;;;;2.03;1.60;;;;;;;8.87;65.33;100861.47;4994953;28;102609;-48
2022/01/15 09:31:05;;;;;;;1.63;1.25;;;;;;;8.87;64.73;100863.34;5002833;28;102768;-48
2022/01/15 09:33:32;;;;;;;3.22;1.48;;;;;;;8.88;64.83;100876.69;4997735;28;104227;-48
2022/01/15 09:35:59;;;;;;;2.30;1.45;;;;;;;8.88;65.79;100863.09;4998737;28;102545;-47
2022/01/15 09:38:25;;;;;;;2.25;1.48;;;;;;;8.88;64.80;100867.72;4999352;28;102709;-48
2022/01/15 09:40:55;;;;;;;3.95;1.52;;;;;;;8.88;65.15;100871.25;4999571;28;103063;-48
2022/01/15 09:43:22;;;;;;;3.08;1.65;;;;;;;8.89;65.26;100866.63;4994653;28;103003;-47
2022/01/15 09:45:51;;;;;;;2.33;1.48;;;;;;;8.89;65.45;100859.31;5001369;28;103192;-47
2022/01/15 09:48:24;;;;;;;3.33;1.50;;;;;;;8.88;64.75;100867.72;4989178;28;102810;-49
2022/01/15 09:50:55;;;;;;;3.45;1.83;;;;;;;8.88;64.46;100868.53;5002086;28;102313;-48
2022/01/15 09:53:22;;;;;;;3.28;1.58;;;;;;;8.89;65.41;100859.31;4997445;28;103956;-48
2022/01/15 09:55:48;;;;;;;2.55;1.50;;;;;;;8.87;65.26;100856.06;5000502;28;102206;-47
2022/01/15 09:58:16;;;;;;;4.05;1.80;;;;;;;8.89;65.09;100861.22;5000724;28;102947;-48
2022/01/15 10:00:44;;;;;;;2.13;1.23;;;;;;;8.88;65.03;100871.25;4998543;28;102540;-48
2022/01/15 10:03:11;;;;;;;3.03;1.35;;;;;;;8.88;64.66;100873.97;4997266;28;103933;-49
2022/01/15 10:05:37;;;;;;;3.80;1.60;;;;;;;8.89;65.29;100866.63;5002855;28;102574;-48
2022/01/15 10:08:08;;;;;;;3.17;1.52;;;;;;;8.88;64.96;100857.69;4997071;28;102664;-48
2022/01/15 10:10:36;;;;;;;2.63;1.58;;;;;;;8.86;65.13;100862.53;4992909;28;102564;-47
2022/01/15 10:13:16;;;;;;;2.88;1.67;;;;;;;8.88;65.14;100863.09;4994481;28;103940;-48
2022/01/15 10:16:13;;;;;;;3.28;1.50;;;;;;;8.88;64.57;100867.72;4997782;28;102697;-48
2022/01/15 10:18:45;;;;;;;2.35;1.70;;;;;;;8.88;65.28;100865.81;4994659;28;102857;-49
2022/01/15 10:21:14;;;;;;;3.58;1.60;;;;;;;8.88;64.39;100868.53;4995134;28;102441;-47
2022/01/15 10:23:46;;;;;;;3.67;1.70;;;;;;;8.89;65.13;100866.63;4997492;28;107822;-47
2022/01/15 10:26:17;;;;;;;2.45;1.30;;;;;;;8.90;64.69;100865.56;4983792;28;102581;-49
2022/01/15 10:28:56;;;;;;;3.70;1.60;;;;;;;8.89;64.75;100872.88;4980330;28;103063;-49
2022/01/15 10:31:24;;;;;;;3.22;1.73;;;;;;;8.88;64.76;100879.41;4994251;28;102351;-48
2022/01/15 10:33:52;;;;;;;4.55;1.80;;;;;;;8.89;64.88;100870.16;4999968;28;104188;-48
2022/01/15 10:36:20;;;;;;;2.28;1.30;;;;;;;8.89;65.25;100870.16;5001215;28;102718;-47
2022/01/15 10:38:47;;;;;;;3.47;1.88;;;;;;;8.89;65.05;100875.59;4979230;28;102647;-49
2022/01/15 10:41:29;;;;;;;3.67;2.08;;;;;;;8.89;64.85;100870.16;4998436;28;102608;-48
2022/01/15 10:43:57;;;;;;;3.15;1.80;;;;;;;8.89;64.78;100881.03;4994144;28;103310;-48
2022/01/15 10:46:33;;;;;;;5.18;2.05;;;;;;;8.89;65.10;100878.31;4996305;28;102504;-47
2022/01/15 10:49:21;;;;;;;2.47;1.83;;;;;;;8.89;64.50;100877.50;4998832;28;105503;-48
2022/01/15 10:52:04;;;;;;;4.15;1.90;;;;;;;8.89;65.42;100869.34;4980923;28;102416;-48
2022/01/15 10:54:31;;;;;;;3.30;1.67;;;;;;;8.89;65.09;100875.59;4997493;28;103952;-47
2022/01/15 10:57:05;;;;;;;2.15;1.40;;;;;;;8.90;64.62;100868.28;5000267;28;102758;-48
2022/01/15 10:59:34;;;;;;;2.80;1.70;;;;;;;8.89;64.42;100872.88;4995476;28;102492;-48
2022/01/15 11:02:17;;;;;;;2.63;1.80;;;;;;;8.90;64.59;100877.22;4996996;28;102473;-47
2022/01/15 11:04:44;;;;;;;3.35;2.10;;;;;;;8.89;64.72;100870.16;4993399;28;109801;-48
2022/01/15 11:07:12;;;;;;;3.28;2.08;;;;;;;8.90;65.09;100869.09;4982753;28;102342;-48
2022/01/15 11:09:38;;;;;;;3.85;2.30;;;;;;;8.90;64.26;100879.94;5001490;28;102353;-47
2022/01/15 11:12:08;;;;;;;3.85;2.22;;;;;;;8.92;64.81;100876.16;4997746;28;102235;-49
2022/01/15 11:14:37;;;;;;;2.90;2.10;;;;;;;8.90;65.40;100885.38;4978295;28;103013;-46
2022/01/15 11:17:05;;;;;;;3.92;2.33;;;;;;;8.90;64.78;100882.66;4992605;28;102744;-48
2022/01/15 11:19:33;;;;;;;3.95;2.28;;;;;;;8.90;65.04;100876.41;4998168;28;102574;-49
2022/01/15 11:22:02;;;;;;;3.42;2.33;;;;;;;8.89;64.46;100875.59;5002863;28;102261;-49
2022/01/15 11:24:30;;;;;;;4.07;2.45;;;;;;;8.91;65.27;100875.34;5002280;28;103844;-49
2022/01/15 11:27:00;;;;;;;5.00;2.60;;;;;;;8.90;64.85;100876.41;4999429;28;102153;-48
2022/01/15 11:29:28;;;;;;;3.17;2.30;;;;;;;8.90;65.00;100870.97;5002795;28;104185;-49
2022/01/15 11:31:58;;;;;;;5.22;2.65;;;;;;;8.89;65.28;100875.59;5000630;28;102610;-49
2022/01/15 11:34:26;;;;;;;4.70;2.95;;;;;;;8.90;64.73;100882.66;4997977;28;103412;-48
2022/01/15 11:36:53;;;;;;;3.95;2.70;;;;;;;8.89;64.71;100870.16;4997419;28;102979;-48
2022/01/15 11:39:21;;;;;;;4.97;2.85;;;;;;;8.90;64.53;100865.56;4988734;28;102394;-48
2022/01/15 11:41:49;;;;;;;4.68;3.00;;;;;;;8.89;64.49;100870.16;5004116;28;102241;-48
2022/01/15 11:44:17;;;;;;;3.00;2.33;;;;;;;8.89;64.73;100886.44;5000278;28;103784;-48
2022/01/15 11:46:47;;;;;;;4.27;2.97;;;;;;;8.89;64.48;100883.75;4998657;28;102514;-48
2022/01/15 11:49:36;;;;;;;5.57;2.67;;;;;;;8.89;65.15;100875.59;4995304;28;102168;-48
2022/01/15 11:52:31;;;;;;;6.20;3.47;;;;;;;8.90;65.26;100893.50;4996473;28;103244;-48
2022/01/15 11:55:20;;;;;;;4.15;2.83;;;;;;;8.90;64.55;100900.84;4994024;28;104157;-48
2022/01/15 11:57:50;;;;;;;3.95;2.53;;;;;;;8.88;64.77;100887.53;4999600;28;102545;-48